createdAt,value
2022-08-04T00:02:56.901Z,100023.56
2022-08-04T00:06:03.901Z,100025.59
2022-08-04T00:09:13.357Z,100020.50
2022-08-04T00:12:18.008Z,100024.72
2022-08-04T00:15:22.712Z,100021.53
2022-08-04T00:18:33.467Z,100016.63
2022-08-04T00:21:40.036Z,100009.66
2022-08-04T00:24:44.849Z,100012.00
2022-08-04T00:27:48.458Z,100028.97
2022-08-04T00:30:52.640Z,100031.91
2022-08-04T00:33:57.635Z,100036.41
2022-08-04T00:37:00.449Z,100037.72
2022-08-04T00:40:10.419Z,100034.06
2022-08-04T00:43:20.588Z,100032.19
2022-08-04T00:46:47.475Z,100028.75
2022-08-04T00:50:04.629Z,100031.78
2022-08-04T00:53:14.637Z,100027.28
2022-08-04T00:56:40.356Z,100032.50
2022-08-04T01:00:00.934Z,100023.50
2022-08-04T01:03:15.331Z,100024.81
2022-08-04T01:06:26.465Z,100034.66
2022-08-04T01:09:42.531Z,100038.56
2022-08-04T01:13:07.748Z,100033.78
2022-08-04T01:16:18.550Z,100035.06
2022-08-04T01:19:51.915Z,100031.72
2022-08-04T01:23:27.098Z,100041.31
2022-08-04T01:26:58.700Z,100034.66
2022-08-04T01:30:03.381Z,100044.19
2022-08-04T01:33:10.440Z,100037.66
2022-08-04T01:36:14.345Z,100041.59
2022-08-04T01:39:34.936Z,100039.84
2022-08-04T01:42:38.302Z,100040.41
2022-08-04T01:45:42.787Z,100038.94
2022-08-04T01:48:48.452Z,100040.53
2022-08-04T01:51:53.079Z,100038.06
2022-08-04T01:54:56.579Z,100037.31
2022-08-04T01:58:01.543Z,100041.81
2022-08-04T02:01:08.655Z,100043.88
2022-08-04T02:04:19.997Z,100040.22
2022-08-04T02:07:38.747Z,100040.47
2022-08-04T02:10:55.775Z,100039.38
2022-08-04T02:14:07.756Z,100041.81
2022-08-04T02:17:14.483Z,100031.09
2022-08-04T02:20:24.212Z,100013.69
2022-08-04T02:23:31.840Z,100028.72
2022-08-04T02:26:36.512Z,100027.81
2022-08-04T02:29:45.133Z,100025.91
2022-08-04T02:32:53.277Z,100022.53
2022-08-04T02:36:02.401Z,100011.84
2022-08-04T02:39:07.811Z,100017.34
2022-08-04T02:42:13.174Z,100019.22
2022-08-04T02:45:20.357Z,100019.94
2022-08-04T02:48:30.320Z,100022.69
2022-08-04T02:51:36.799Z,100000.38
2022-08-04T02:54:42.994Z,100013.97
2022-08-04T02:57:50.068Z,100017.59
2022-08-04T03:00:53.002Z,100011.50
2022-08-04T03:04:24.376Z,100009.19
2022-08-04T03:07:55.531Z,100017.25
2022-08-04T03:11:15.279Z,100012.31
2022-08-04T03:14:37.798Z,100013.69
2022-08-04T03:18:09.814Z,100005.63
2022-08-04T03:22:02.963Z,100014.25
2022-08-04T03:25:30.268Z,100009.75
2022-08-04T03:29:11.626Z,100013.38
2022-08-04T03:32:50.880Z,100012.06
2022-08-04T03:36:12.952Z,100018.81
2022-08-04T03:39:40.758Z,100016.38
2022-08-04T03:43:56.960Z,100008.38
2022-08-04T03:47:12.966Z,100004.63
2022-08-04T03:50:46.298Z,100007.63
2022-08-04T03:54:09.045Z,100016.38
2022-08-04T03:57:48.511Z,100014.75
2022-08-04T04:01:03.644Z,100013.13
2022-08-04T04:04:48.223Z,100009.38
2022-08-04T04:08:23.845Z,100017.06
2022-08-04T04:12:05.051Z,100014.88
2022-08-04T04:15:30.179Z,100017.13
2022-08-04T04:18:50.398Z,100016.81
2022-08-04T04:22:23.308Z,100016.81
2022-08-04T04:25:37.114Z,100019.44
2022-08-04T04:29:01.562Z,100027.81
2022-08-04T04:32:22.631Z,100016.56
2022-08-04T04:35:34.717Z,100026.75
2022-08-04T04:38:53.681Z,100026.00
2022-08-04T04:42:17.296Z,100024.56
2022-08-04T04:45:26.992Z,100025.94
2022-08-04T04:48:43.519Z,100020.00
2022-08-04T04:51:50.755Z,100026.25
2022-08-04T04:55:01.561Z,100027.38
2022-08-04T04:58:14.209Z,100036.63
2022-08-04T05:01:43.567Z,100036.38
2022-08-04T05:05:12.376Z,100036.41
2022-08-04T05:08:45.011Z,100027.16
2022-08-04T05:14:22.822Z,100021.19
2022-08-04T05:15:47.554Z,100025.75
2022-08-04T05:18:56.890Z,100033.47
2022-08-04T05:22:11.180Z,100041.44
2022-08-04T05:25:22.223Z,100025.63
2022-08-04T05:28:31.377Z,100027.66
2022-08-04T05:31:38.442Z,100016.66
2022-08-04T05:34:45.188Z,100035.53
2022-08-04T05:38:01.511Z,100024.25
2022-08-04T05:41:06.676Z,100019.88
2022-08-04T05:44:11.135Z,100017.00
2022-08-04T05:47:16.872Z,100023.66
2022-08-04T05:50:20.349Z,100012.59
2022-08-04T05:53:25.733Z,100008.47
2022-08-04T05:56:30.111Z,99994.44
2022-08-04T05:59:35.307Z,99993.19
2022-08-04T06:02:40.119Z,99989.56
2022-08-04T06:05:44.712Z,99992.06
2022-08-04T06:08:49.039Z,99991.09
2022-08-04T06:12:00.799Z,99987.50
2022-08-04T06:15:10.714Z,99981.72
2022-08-04T06:19:56.570Z,99946.34
2022-08-04T06:21:40.453Z,99972.19
2022-08-04T06:24:48.120Z,99978.56
2022-08-04T06:27:51.941Z,99972.66
2022-08-04T06:30:58.516Z,99974.16
2022-08-04T06:34:21.467Z,99971.94
2022-08-04T06:37:42.740Z,99968.44
2022-08-04T06:40:48.393Z,99967.66
2022-08-04T06:43:52.700Z,99962.13
2022-08-04T06:46:57.147Z,99956.69
2022-08-04T06:51:24.435Z,99972.78
2022-08-04T06:53:25.307Z,99959.66
2022-08-04T06:56:31.944Z,99956.06
2022-08-04T06:59:35.163Z,99969.31
2022-08-04T07:02:44.039Z,99965.31
2022-08-04T07:05:48.570Z,99965.78
2022-08-04T07:08:52.197Z,99959.25
2022-08-04T07:11:56.943Z,99958.41
2022-08-04T07:15:00.451Z,99958.38
2022-08-04T07:18:05.094Z,99961.25
2022-08-04T07:21:08.691Z,99956.56
2022-08-04T07:24:12.533Z,99941.69
2022-08-04T07:27:18.392Z,99941.44
2022-08-04T07:30:45.187Z,99923.78
2022-08-04T07:34:16.823Z,99947.19
2022-08-04T07:37:11.977Z,99936.84
2022-08-04T07:40:15.393Z,99945.66
2022-08-04T07:43:20.012Z,99943.91
2022-08-04T07:46:23.071Z,99946.22
2022-08-04T07:49:54.921Z,99935.38
2022-08-04T07:53:15.346Z,99935.56
2022-08-04T07:56:17.594Z,99935.75
2022-08-04T07:59:21.806Z,99930.53
2022-08-04T08:02:25.083Z,99937.41
2022-08-04T08:05:29.182Z,99934.78
2022-08-04T08:08:32.020Z,99925.34
2022-08-04T08:12:35.506Z,99922.97
2022-08-04T08:15:00.558Z,99918.47
2022-08-04T08:18:03.262Z,99915.59
2022-08-04T08:21:07.708Z,99923.25
2022-08-04T08:24:12.788Z,99920.72
2022-08-04T08:27:15.981Z,99915.72
2022-08-04T08:30:20.148Z,99912.38
2022-08-04T08:33:25.158Z,99908.31
2022-08-04T08:36:33.996Z,99903.84
2022-08-04T08:39:41.227Z,99895.88
2022-08-04T08:44:05.722Z,99896.19
2022-08-04T08:47:02.481Z,99896.09
2022-08-04T08:50:28.937Z,99883.84
2022-08-04T08:53:51.280Z,99895.72
2022-08-04T08:57:10.359Z,99896.84
2022-08-04T09:00:19.428Z,99889.50
2022-08-04T09:03:42.763Z,99891.03
2022-08-04T09:06:55.146Z,99888.94
2022-08-04T09:10:08.110Z,99883.84
2022-08-04T09:13:17.625Z,99874.47
2022-08-04T09:16:25.607Z,99872.09
2022-08-04T09:19:39.418Z,99868.44
2022-08-04T09:22:50.597Z,99867.31
2022-08-04T09:26:02.383Z,99873.81
2022-08-04T09:29:12.244Z,99872.59
2022-08-04T09:32:29.131Z,99868.81
2022-08-04T09:35:43.466Z,99863.31
2022-08-04T09:38:52.742Z,99871.31
2022-08-04T09:42:05.570Z,99865.88
2022-08-04T09:45:26.213Z,99857.25
2022-08-04T09:48:38.058Z,99863.38
2022-08-04T09:51:57.495Z,99858.72
2022-08-04T09:55:10.506Z,99856.22
2022-08-04T09:58:23.752Z,99842.91
2022-08-04T10:01:30.080Z,99839.72
2022-08-04T10:04:36.017Z,99841.47
2022-08-04T10:08:16.277Z,99833.56
2022-08-04T10:11:33.522Z,99824.34
2022-08-04T10:14:41.565Z,99829.50
2022-08-04T10:18:00.995Z,99810.16
2022-08-04T10:21:15.371Z,99801.91
2022-08-04T10:24:34.141Z,99810.50
2022-08-04T10:27:44.627Z,99805.31
2022-08-04T10:30:51.789Z,99796.03
2022-08-04T10:34:01.667Z,99789.34
2022-08-04T10:37:10.758Z,99788.69
2022-08-04T10:40:40.910Z,99792.03
2022-08-04T10:43:50.671Z,99793.06
2022-08-04T10:46:58.217Z,99789.78
2022-08-04T10:50:03.847Z,99793.00
2022-08-04T10:53:13.012Z,99789.94
2022-08-04T10:56:24.209Z,99778.25
2022-08-04T10:59:32.456Z,99779.91
2022-08-04T11:02:42.858Z,99776.19
2022-08-04T11:05:50.205Z,99767.47
2022-08-04T11:08:56.465Z,99776.25
2022-08-04T11:12:08.499Z,99767.97
2022-08-04T11:15:14.551Z,99758.53
2022-08-04T11:18:26.454Z,99768.16
2022-08-04T11:21:34.968Z,99760.75
2022-08-04T11:24:45.482Z,99759.84
2022-08-04T11:27:57.132Z,99768.78
2022-08-04T11:31:06.148Z,99774.00
2022-08-04T11:34:21.417Z,99771.53
2022-08-04T11:37:26.900Z,99771.81
2022-08-04T11:40:38.212Z,99762.00
2022-08-04T11:44:00.670Z,99758.88
2022-08-04T11:47:16.044Z,99757.22
2022-08-04T11:50:23.022Z,99758.47
2022-08-04T11:53:36.269Z,99760.31
2022-08-04T11:56:40.917Z,99759.50
2022-08-04T11:59:46.449Z,99758.63
2022-08-04T12:03:07.782Z,99767.16
2022-08-04T12:06:19.058Z,99770.50
2022-08-04T12:09:32.730Z,99759.63
2022-08-04T12:12:43.593Z,99768.81
2022-08-04T12:15:56.611Z,99758.94
2022-08-04T12:19:03.259Z,99763.09
2022-08-04T12:22:12.773Z,99752.63
2022-08-04T12:25:21.147Z,99760.03
2022-08-04T12:28:46.714Z,99750.91
2022-08-04T12:32:02.015Z,99754.69
2022-08-04T12:35:14.302Z,99748.94
2022-08-04T12:38:17.487Z,99744.78
2022-08-04T12:41:25.527Z,99742.38
2022-08-04T12:44:38.249Z,99736.97
2022-08-04T12:47:45.050Z,99739.28
2022-08-04T12:50:51.585Z,99744.75
2022-08-04T12:53:54.308Z,99741.41
2022-08-04T12:57:00.424Z,99732.81
2022-08-04T13:00:03.404Z,99743.59
2022-08-04T13:03:12.623Z,99753.00
2022-08-04T13:06:21.126Z,99743.22
2022-08-04T13:09:30.903Z,99739.91
2022-08-04T13:12:35.292Z,99742.34
2022-08-04T13:15:47.625Z,99736.47
2022-08-04T13:19:05.326Z,99723.50
2022-08-04T13:22:08.575Z,99722.78
2022-08-04T13:26:41.672Z,99725.94
2022-08-04T13:28:42.921Z,99719.72
2022-08-04T13:31:52.592Z,99713.09
2022-08-04T13:34:59.325Z,99708.56
2022-08-04T13:38:03.386Z,99706.72
2022-08-04T13:41:07.453Z,99709.41
2022-08-04T13:44:17.947Z,99704.56
2022-08-04T13:47:24.234Z,99707.94
2022-08-04T13:50:30.204Z,99708.91
2022-08-04T13:53:34.388Z,99700.31
2022-08-04T13:56:41.549Z,99693.31
2022-08-04T13:59:49.237Z,99688.66
2022-08-04T14:02:59.988Z,99685.34
2022-08-04T14:06:16.609Z,99689.63
2022-08-04T14:09:21.790Z,99688.25
2022-08-04T14:12:47.296Z,99682.03
2022-08-04T14:16:01.175Z,99679.94
2022-08-04T14:19:06.964Z,99680.31
2022-08-04T14:22:29.213Z,99673.81
2022-08-04T14:25:35.640Z,99679.59
2022-08-04T14:29:25.475Z,99666.22
2022-08-04T14:32:05.954Z,99663.28
2022-08-04T14:35:16.644Z,99663.13
2022-08-04T14:38:21.064Z,99671.44
2022-08-04T14:41:26.153Z,99664.34
2022-08-04T14:44:28.869Z,99667.75
2022-08-04T14:47:52.119Z,99667.75
2022-08-04T14:50:56.034Z,99660.44
2022-08-04T14:54:03.975Z,99662.41
2022-08-04T14:57:10.846Z,99654.19
2022-08-04T15:00:24.901Z,99648.47
2022-08-04T15:03:29.509Z,99649.56
2022-08-04T15:06:33.676Z,99644.91
2022-08-04T15:09:37.962Z,99647.00
2022-08-04T15:12:41.644Z,99635.47
2022-08-04T15:16:06.995Z,99634.25
2022-08-04T15:19:09.225Z,99638.16
2022-08-04T15:22:17.477Z,99632.41
2022-08-04T15:25:21.955Z,99646.50
2022-08-04T15:28:28.837Z,99639.28
2022-08-04T15:32:06.047Z,99644.41
2022-08-04T15:35:07.191Z,99649.91
2022-08-04T15:38:15.445Z,99638.72
2022-08-04T15:41:27.461Z,99633.44
2022-08-04T15:45:21.228Z,99631.22
2022-08-04T15:48:27.275Z,99623.00
2022-08-04T15:51:31.834Z,99630.63
2022-08-04T15:54:36.754Z,99620.44
2022-08-04T15:58:02.240Z,99627.19
2022-08-04T16:01:15.805Z,99619.75
2022-08-04T16:04:23.416Z,99624.19
2022-08-04T16:07:57.438Z,99615.63
2022-08-04T16:11:00.228Z,99607.28
2022-08-04T16:14:11.501Z,99612.31
2022-08-04T16:17:19.164Z,99600.84
2022-08-04T16:20:23.886Z,99612.47
2022-08-04T16:23:57.999Z,99611.78
2022-08-04T16:27:03.136Z,99612.16
2022-08-04T16:30:13.738Z,99587.63
2022-08-04T16:33:17.719Z,99609.13
2022-08-04T16:36:56.793Z,99601.94
2022-08-04T16:40:37.167Z,99601.19
2022-08-04T16:43:41.468Z,99591.50
2022-08-04T16:47:08.223Z,99609.66
2022-08-04T16:50:09.247Z,99607.88
2022-08-04T16:53:14.602Z,99608.59
2022-08-04T16:56:36.939Z,99605.50
2022-08-04T16:59:39.863Z,99600.03
2022-08-04T17:02:46.165Z,99601.28
2022-08-04T17:05:49.508Z,99601.53
2022-08-04T17:08:52.407Z,99558.88
2022-08-04T17:11:56.006Z,99602.56
2022-08-04T17:14:58.772Z,99603.34
2022-08-04T17:18:18.764Z,99602.91
2022-08-04T17:21:24.939Z,99603.72
2022-08-04T17:24:27.654Z,99602.38
2022-08-04T17:28:08.750Z,99598.66
2022-08-04T17:30:55.336Z,99585.66
2022-08-04T17:34:02.147Z,99598.97
2022-08-04T17:37:36.594Z,99598.91
2022-08-04T17:40:27.947Z,99600.84
2022-08-04T17:44:03.291Z,99601.44
2022-08-04T17:47:12.658Z,99600.44
2022-08-04T17:50:25.439Z,99604.66
2022-08-04T17:53:53.042Z,99611.03
2022-08-04T17:56:58.612Z,99610.44
2022-08-04T18:00:01.984Z,99612.69
2022-08-04T18:03:11.473Z,99612.34
2022-08-04T18:06:21.325Z,99614.78
2022-08-04T18:09:57.428Z,99628.22
2022-08-04T18:12:48.776Z,99619.44
2022-08-04T18:15:52.039Z,99631.97
2022-08-04T18:19:11.213Z,99642.09
2022-08-04T18:22:26.601Z,99639.28
2022-08-04T18:25:51.799Z,99645.78
2022-08-04T18:28:53.759Z,99645.53
2022-08-04T18:31:56.493Z,99656.06
2022-08-04T18:35:05.435Z,99658.38
2022-08-04T18:38:23.577Z,99656.91
2022-08-04T18:41:27.815Z,99659.22
2022-08-04T18:44:31.216Z,99656.38
2022-08-04T18:47:58.413Z,99671.66
2022-08-04T18:51:10.227Z,99672.59
2022-08-04T18:54:16.661Z,99672.78
2022-08-04T18:57:32.518Z,99683.28
2022-08-04T19:00:45.715Z,99686.22
2022-08-04T19:03:54.330Z,99680.13
2022-08-04T19:07:29.319Z,99687.59
2022-08-04T19:10:27.304Z,99680.44
2022-08-04T19:13:34.716Z,99689.78
2022-08-04T19:16:40.755Z,99693.75
2022-08-04T19:19:47.400Z,99698.16
2022-08-04T19:24:10.656Z,99713.84
2022-08-04T19:26:27.751Z,99703.03
2022-08-04T19:29:37.696Z,99712.41
2022-08-04T19:32:41.408Z,99716.19
2022-08-04T19:35:51.548Z,99706.72
2022-08-04T19:38:55.650Z,99722.13
2022-08-04T19:42:06.678Z,99720.09
2022-08-04T19:48:34.079Z,99732.63
2022-08-04T19:51:38.878Z,99722.72
2022-08-04T19:54:47.043Z,99729.16
2022-08-04T19:57:53.531Z,99742.13
2022-08-04T20:00:56.553Z,99741.69
2022-08-04T20:04:08.868Z,99744.66
2022-08-04T20:07:15.439Z,99744.69
2022-08-04T20:10:18.724Z,99746.50
2022-08-04T20:13:33.833Z,99751.81
2022-08-04T20:16:40.299Z,99746.41
2022-08-04T20:19:51.535Z,99753.50
2022-08-04T20:22:54.524Z,99749.19
2022-08-04T20:25:57.354Z,99742.97
2022-08-04T20:29:01.664Z,99738.50
2022-08-04T20:32:09.805Z,99744.25
2022-08-04T20:35:15.759Z,99745.66
2022-08-04T20:38:33.620Z,99748.06
2022-08-04T20:41:37.139Z,99749.06
2022-08-04T20:44:42.211Z,99753.13
2022-08-04T20:47:53.209Z,99751.78
2022-08-04T20:50:57.558Z,99749.75
2022-08-04T20:54:00.326Z,99749.91
2022-08-04T20:57:03.690Z,99751.19
2022-08-04T21:00:10.002Z,99740.25
2022-08-04T21:03:15.957Z,99742.84
2022-08-04T21:06:19.049Z,99738.69
2022-08-04T21:09:37.243Z,99736.97
2022-08-04T21:12:41.490Z,99741.72
2022-08-04T21:15:58.115Z,99745.13
2022-08-04T21:19:04.154Z,99732.00
2022-08-04T21:22:10.463Z,99741.84
2022-08-04T21:25:16.348Z,99743.97
2022-08-04T21:28:20.471Z,99740.88
2022-08-04T21:31:25.930Z,99737.63
2022-08-04T21:34:38.461Z,99746.28
2022-08-04T21:37:58.116Z,99746.47
2022-08-04T21:41:04.816Z,99751.84
2022-08-04T21:44:09.312Z,99755.19
2022-08-04T21:47:23.709Z,99758.47
2022-08-04T21:50:30.649Z,99757.47
2022-08-04T21:53:33.624Z,99757.53
2022-08-04T21:56:37.991Z,99752.88
2022-08-04T21:59:45.937Z,99769.69
2022-08-04T22:02:53.551Z,99770.75
2022-08-04T22:05:57.331Z,99767.31
2022-08-04T22:09:00.795Z,99774.06
2022-08-04T22:12:03.888Z,99766.09
2022-08-04T22:15:23.145Z,99758.13
2022-08-04T22:18:37.074Z,99769.22
2022-08-04T22:21:45.521Z,99766.28
2022-08-04T22:24:49.550Z,99757.63
2022-08-04T22:28:03.564Z,99757.81
2022-08-04T22:31:23.347Z,99758.16
2022-08-04T22:34:30.495Z,99765.94
2022-08-04T22:37:36.175Z,99761.47
2022-08-04T22:40:47.819Z,99759.97
2022-08-04T22:43:54.919Z,99754.75
2022-08-04T22:46:57.941Z,99750.41
2022-08-04T22:50:26.655Z,99747.28
2022-08-04T22:53:26.057Z,99743.09
2022-08-04T22:56:38.359Z,99736.69
2022-08-04T22:59:43.390Z,99733.25
2022-08-04T23:02:46.236Z,99733.44
2022-08-04T23:05:53.066Z,99723.72
2022-08-04T23:08:57.502Z,99731.72
2022-08-04T23:12:23.736Z,99727.75
2022-08-04T23:15:23.078Z,99731.75
2022-08-04T23:18:26.750Z,99731.41
2022-08-04T23:21:40.991Z,99722.09
2022-08-04T23:24:50.252Z,99725.72
2022-08-04T23:27:53.726Z,99722.44
2022-08-04T23:30:57.598Z,99729.53
2022-08-04T23:34:00.766Z,99721.38
2022-08-04T23:37:04.973Z,99724.16
2022-08-04T23:40:23.483Z,99719.66
2022-08-04T23:43:49.627Z,99721.72
2022-08-04T23:47:01.915Z,99722.09
2022-08-04T23:50:05.455Z,99725.22
2022-08-04T23:53:09.789Z,99728.31
2022-08-04T23:56:21.538Z,99742.16
2022-08-04T23:59:52.724Z,99757.03
